createdAt,value
2019-04-11T00:02:08.848Z,15.03
2019-04-11T00:04:37.997Z,15.60
2019-04-11T00:07:07.866Z,14.33
2019-04-11T00:09:36.938Z,14.47
2019-04-11T00:12:06.461Z,13.87
2019-04-11T00:14:35.866Z,14.80
2019-04-11T00:17:05.793Z,14.40
2019-04-11T00:19:35.807Z,14.00
2019-04-11T00:22:05.686Z,14.57
2019-04-11T00:24:34.784Z,13.50
2019-04-11T00:27:04.577Z,15.20
2019-04-11T00:29:34.428Z,14.20
2019-04-11T00:32:06.554Z,14.37
2019-04-11T00:34:35.212Z,14.77
2019-04-11T00:37:05.145Z,16.07
2019-04-11T00:39:35.325Z,13.67
2019-04-11T00:42:04.411Z,14.30
2019-04-11T00:44:33.463Z,14.60
2019-04-11T00:47:02.684Z,13.97
2019-04-11T00:49:32.568Z,14.33
2019-04-11T00:52:02.667Z,15.93
2019-04-11T00:54:33.046Z,14.10
2019-04-11T00:57:02.526Z,13.80
2019-04-11T00:59:32.213Z,14.10
2019-04-11T01:02:01.507Z,14.20
2019-04-11T01:04:30.674Z,14.93
2019-04-11T01:07:00.713Z,13.93
2019-04-11T01:09:30.544Z,14.30
2019-04-11T01:12:00.471Z,14.70
2019-04-11T01:14:29.963Z,14.53
2019-04-11T01:16:59.101Z,13.70
2019-04-11T01:19:28.965Z,14.77
2019-04-11T01:21:59.503Z,15.33
2019-04-11T01:24:28.489Z,13.73
2019-04-11T01:26:57.542Z,14.57
2019-04-11T01:29:27.313Z,15.50
2019-04-11T01:32:00.274Z,14.20
2019-04-11T01:34:29.376Z,14.50
2019-04-11T01:36:59.530Z,13.03
2019-04-11T01:39:45.330Z,14.00
2019-04-11T01:42:16.159Z,14.30
2019-04-11T01:44:46.047Z,14.30
2019-04-11T01:47:23.580Z,14.73
2019-04-11T01:49:52.666Z,15.30
2019-04-11T01:52:22.417Z,14.70
2019-04-11T01:54:52.164Z,15.13
2019-04-11T01:57:22.151Z,15.80
2019-04-11T01:59:51.369Z,14.97
2019-04-11T02:02:37.515Z,14.60
2019-04-11T02:05:27.201Z,14.57
2019-04-11T02:07:56.358Z,14.97
2019-04-11T02:10:26.502Z,15.90
2019-04-11T02:12:55.653Z,16.00
2019-04-11T02:15:25.581Z,15.57
2019-04-11T02:17:55.046Z,16.97
2019-04-11T02:20:24.954Z,17.47
2019-04-11T02:23:23.322Z,16.67
2019-04-11T02:26:03.381Z,17.40
2019-04-11T02:28:32.881Z,16.20
2019-04-11T02:31:02.781Z,17.03
2019-04-11T02:33:33.069Z,17.80
2019-04-11T02:36:03.166Z,17.10
2019-04-11T02:38:34.731Z,16.43
2019-04-11T02:41:05.933Z,16.67
2019-04-11T02:43:36.435Z,16.33
2019-04-11T02:46:17.601Z,16.83
2019-04-11T02:48:37.692Z,16.23
2019-04-11T02:51:09.864Z,15.30
2019-04-11T02:53:38.943Z,16.33
2019-04-11T02:56:11.115Z,16.20
2019-04-11T02:58:40.111Z,15.50
2019-04-11T03:01:12.281Z,16.63
2019-04-11T03:03:42.285Z,15.30
2019-04-11T03:06:11.713Z,16.30
2019-04-11T03:08:41.593Z,15.50
2019-04-11T03:11:11.819Z,16.83
2019-04-11T03:13:42.157Z,16.50
2019-04-11T03:16:27.826Z,16.40
2019-04-11T03:18:58.943Z,18.70
2019-04-11T03:21:20.191Z,18.13
2019-04-11T03:23:44.724Z,18.10
2019-04-11T03:26:14.258Z,18.87
2019-04-11T03:28:47.424Z,19.00
2019-04-11T03:31:58.254Z,17.37
2019-04-11T03:39:11.977Z,19.53
2019-04-11T03:41:32.912Z,20.43
2019-04-11T03:43:59.114Z,20.17
2019-04-11T03:46:40.166Z,19.03
2019-04-11T03:49:01.249Z,20.13
2019-04-11T03:51:22.828Z,19.30
2019-04-11T03:53:53.613Z,20.70
2019-04-11T03:56:24.434Z,19.17
2019-04-11T03:58:55.338Z,20.67
2019-04-11T04:01:26.748Z,21.33
2019-04-11T04:03:56.227Z,23.00
2019-04-11T04:06:25.742Z,22.40
2019-04-11T04:08:55.597Z,24.07
2019-04-11T04:11:27.718Z,22.80
2019-04-11T04:14:17.695Z,28.00
2019-04-11T04:16:57.378Z,23.80
2019-04-11T04:19:43.335Z,22.53
2019-04-11T04:22:20.743Z,23.27
2019-04-11T04:24:51.714Z,21.20
2019-04-11T04:27:23.193Z,19.90
2019-04-11T04:29:57.023Z,21.23
2019-04-11T04:32:24.836Z,21.03
2019-04-11T04:34:53.710Z,20.00
2019-04-11T04:37:24.747Z,20.40
2019-04-11T04:40:13.194Z,19.63
2019-04-11T04:42:32.217Z,19.43
2019-04-11T04:44:56.022Z,18.53
2019-04-11T04:47:38.548Z,20.30
2019-04-11T04:49:57.090Z,18.33
2019-04-11T04:52:27.922Z,19.50
2019-04-11T04:54:59.214Z,19.77
2019-04-11T04:57:29.744Z,18.90
2019-04-11T04:59:59.895Z,20.63
2019-04-11T05:02:30.547Z,19.83
2019-04-11T05:05:01.357Z,18.50
2019-04-11T05:07:34.481Z,18.73
2019-04-11T05:10:03.224Z,18.43
2019-04-11T05:12:32.254Z,18.63
2019-04-11T05:15:01.584Z,20.57
2019-04-11T05:17:32.212Z,17.80
2019-04-11T05:20:02.690Z,18.33
2019-04-11T05:22:33.121Z,18.57
2019-04-11T05:25:03.895Z,19.73
2019-04-11T05:27:33.575Z,18.63
2019-04-11T05:30:02.990Z,16.30
2019-04-11T05:32:33.368Z,18.57
2019-04-11T05:35:02.853Z,17.60
2019-04-11T05:37:33.254Z,17.73
2019-04-11T05:40:03.099Z,17.60
2019-04-11T05:42:33.306Z,18.70
2019-04-11T05:45:03.261Z,18.23
2019-04-11T05:47:32.615Z,17.73
2019-04-11T05:50:24.244Z,18.70
2019-04-11T05:52:54.513Z,18.93
2019-04-11T05:55:24.252Z,17.97
2019-04-11T05:57:54.363Z,17.37
2019-04-11T06:00:34.737Z,18.17
2019-04-11T06:03:05.819Z,19.63
2019-04-11T06:05:56.475Z,17.80
2019-04-11T06:08:28.539Z,18.67
2019-04-11T06:11:19.317Z,17.83
2019-04-11T06:13:59.558Z,18.17
2019-04-11T06:16:38.892Z,17.53
2019-04-11T06:19:24.973Z,17.87
2019-04-11T06:21:58.172Z,17.80
2019-04-11T06:24:46.567Z,18.23
2019-04-11T06:27:22.663Z,17.47
2019-04-11T06:30:18.579Z,17.63
2019-04-11T06:33:05.442Z,17.00
2019-04-11T06:35:42.582Z,16.63
2019-04-11T06:38:40.748Z,17.57
2019-04-11T06:41:22.130Z,16.30
2019-04-11T06:44:10.185Z,17.03
2019-04-11T06:47:00.503Z,16.70
2019-04-11T06:49:36.395Z,16.87
2019-04-11T06:52:06.722Z,16.90
2019-04-11T06:54:58.204Z,15.67
2019-04-11T06:57:28.516Z,15.83
2019-04-11T06:59:58.751Z,16.40
2019-04-11T07:02:29.888Z,15.77
2019-04-11T07:05:02.538Z,16.40
2019-04-11T07:07:34.677Z,16.70
2019-04-11T07:10:06.237Z,16.97
2019-04-11T07:12:44.667Z,15.50
2019-04-11T07:15:19.202Z,15.27
2019-04-11T07:18:07.491Z,15.50
2019-04-11T07:21:02.735Z,15.40
2019-04-11T07:23:51.391Z,15.17
2019-04-11T07:26:48.497Z,15.70
2019-04-11T07:29:35.744Z,15.17
2019-04-11T07:32:18.276Z,15.63
2019-04-11T07:35:15.744Z,16.80
2019-04-11T07:37:47.378Z,15.80
2019-04-11T07:40:35.243Z,16.97
2019-04-11T07:43:22.565Z,14.80
2019-04-11T07:46:15.623Z,16.37
2019-04-11T07:48:45.034Z,15.90
2019-04-11T07:51:40.611Z,17.70
2019-04-11T07:54:20.594Z,16.90
2019-04-11T07:56:54.979Z,16.63
2019-04-11T07:59:43.078Z,18.43
2019-04-11T08:02:31.312Z,16.10
2019-04-11T08:05:32.357Z,17.50
2019-04-11T08:08:21.421Z,16.50
2019-04-11T08:11:11.497Z,15.57
2019-04-11T08:14:00.030Z,16.30
2019-04-11T08:17:07.254Z,15.57
2019-04-11T08:19:55.266Z,16.37
2019-04-11T08:22:48.135Z,14.67
2019-04-11T08:25:39.829Z,16.17
2019-04-11T08:28:13.641Z,16.30
2019-04-11T08:31:01.293Z,16.60
2019-04-11T08:33:32.892Z,16.50
2019-04-11T08:36:15.792Z,16.10
2019-04-11T08:38:44.910Z,16.00
2019-04-11T08:41:33.916Z,15.67
2019-04-11T08:44:07.787Z,16.60
2019-04-11T08:46:42.722Z,16.37
2019-04-11T08:49:18.331Z,18.10
2019-04-11T08:51:47.473Z,18.80
2019-04-11T08:54:35.544Z,17.80
2019-04-11T08:57:04.546Z,17.17
2019-04-11T08:59:47.563Z,17.93
2019-04-11T09:02:39.297Z,17.53
2019-04-11T09:05:42.981Z,15.67
2019-04-11T09:08:26.728Z,16.57
2019-04-11T09:11:14.963Z,17.00
2019-04-11T09:14:09.746Z,17.03
2019-04-11T09:17:01.777Z,18.97
2019-04-11T09:20:05.361Z,17.37
2019-04-11T09:22:55.387Z,17.17
2019-04-11T09:26:02.052Z,17.07
2019-04-11T09:28:37.578Z,17.33
2019-04-11T09:31:41.945Z,16.77
2019-04-11T09:34:35.675Z,15.83
2019-04-11T09:37:20.335Z,17.00
2019-04-11T09:40:20.881Z,17.80
2019-04-11T09:43:09.398Z,16.57
2019-04-11T09:45:57.767Z,16.90
2019-04-11T09:48:51.956Z,17.37
2019-04-11T09:51:46.158Z,17.17
2019-04-11T09:54:37.170Z,17.97
2019-04-11T09:57:28.953Z,17.90
2019-04-11T10:00:26.628Z,16.50
2019-04-11T10:03:21.035Z,14.40
2019-04-11T10:06:19.453Z,15.33
2019-04-11T10:08:53.203Z,13.70
2019-04-11T10:11:54.733Z,13.73
2019-04-11T10:14:26.594Z,13.33
2019-04-11T10:17:14.764Z,12.90
2019-04-11T10:19:56.385Z,14.07
2019-04-11T10:22:43.784Z,13.80
2019-04-11T10:25:39.312Z,14.13
2019-04-11T10:28:27.518Z,14.60
2019-04-11T10:31:22.769Z,15.07
2019-04-11T10:34:11.234Z,15.90
2019-04-11T10:37:03.538Z,15.83
2019-04-11T10:39:54.664Z,16.10
2019-04-11T10:42:26.616Z,15.97
2019-04-11T10:45:31.192Z,15.33
2019-04-11T10:48:05.525Z,14.50
2019-04-11T10:50:52.762Z,14.50
2019-04-11T10:53:24.930Z,15.93
2019-04-11T10:56:13.910Z,15.63
2019-04-11T10:58:49.086Z,15.40
2019-04-11T11:01:36.441Z,15.13
2019-04-11T11:04:10.031Z,14.70
2019-04-11T11:06:39.911Z,15.23
2019-04-11T11:09:37.222Z,16.13
2019-04-11T11:12:25.880Z,16.43
2019-04-11T11:15:25.942Z,15.30
2019-04-11T11:18:59.745Z,16.90
2019-04-11T11:20:58.778Z,15.90
2019-04-11T11:23:44.864Z,15.27
2019-04-11T11:26:33.846Z,15.90
2019-04-11T11:29:13.638Z,16.43
2019-04-11T11:32:02.899Z,15.30
2019-04-11T11:34:39.344Z,15.43
2019-04-11T11:37:42.669Z,14.43
2019-04-11T11:40:29.995Z,15.83
2019-04-11T11:43:27.547Z,14.63
2019-04-11T11:46:25.723Z,16.67
2019-04-11T11:49:00.730Z,16.60
2019-04-11T11:51:35.367Z,15.03
2019-04-11T11:54:13.688Z,15.87
2019-04-11T11:56:44.349Z,15.10
2019-04-11T11:59:27.374Z,13.27
2019-04-11T12:02:00.694Z,15.73
2019-04-11T12:04:56.027Z,14.10
2019-04-11T12:07:33.754Z,13.83
2019-04-11T12:10:33.632Z,12.93
2019-04-11T12:13:26.708Z,13.73
2019-04-11T12:16:05.815Z,13.10
2019-04-11T12:18:49.812Z,13.33
2019-04-11T12:21:24.254Z,12.93
2019-04-11T12:24:13.367Z,12.17
2019-04-11T12:26:50.239Z,12.03
2019-04-11T12:29:45.566Z,12.13
2019-04-11T12:32:14.812Z,11.70
2019-04-11T12:35:08.858Z,11.43
2019-04-11T12:37:43.371Z,11.50
2019-04-11T12:40:49.555Z,11.90
2019-04-11T12:43:18.611Z,11.33
2019-04-11T12:46:12.841Z,11.30
2019-04-11T12:48:45.566Z,11.40
2019-04-11T12:51:34.376Z,10.97
2019-04-11T12:54:03.404Z,11.77
2019-04-11T12:56:50.064Z,11.57
2019-04-11T12:59:25.776Z,11.20
2019-04-11T13:02:12.863Z,10.67
2019-04-11T13:04:45.034Z,12.40
2019-04-11T13:07:33.340Z,12.60
2019-04-11T13:10:39.192Z,11.63
2019-04-11T13:13:36.121Z,12.10
2019-04-11T13:16:13.235Z,11.90
2019-04-11T13:19:04.054Z,12.13
2019-04-11T13:21:41.721Z,12.30
2019-04-11T13:24:27.378Z,13.00
2019-04-11T13:27:14.262Z,13.57
2019-04-11T13:30:02.363Z,12.33
2019-04-11T13:33:09.924Z,12.33
2019-04-11T13:36:03.786Z,12.40
2019-04-11T13:38:40.848Z,13.13
2019-04-11T13:41:20.093Z,14.40
2019-04-11T13:44:01.366Z,13.40
2019-04-11T13:46:49.694Z,12.80
2019-04-11T13:49:37.657Z,12.50
2019-04-11T13:52:28.467Z,12.73
2019-04-11T13:55:20.414Z,11.70
2019-04-11T13:58:08.530Z,11.60
2019-04-11T14:00:40.643Z,11.93
2019-04-11T14:03:43.878Z,12.50
2019-04-11T14:06:27.772Z,11.93
2019-04-11T14:09:24.991Z,12.73
2019-04-11T14:12:04.729Z,12.40
2019-04-11T14:14:54.648Z,13.33
2019-04-11T14:17:42.487Z,13.87
2019-04-11T14:20:42.113Z,14.30
2019-04-11T14:23:33.053Z,13.77
2019-04-11T14:26:28.976Z,13.90
2019-04-11T14:29:22.161Z,14.00
2019-04-11T14:32:09.473Z,15.10
2019-04-11T14:34:57.481Z,15.23
2019-04-11T14:37:38.577Z,14.67
2019-04-11T14:40:12.302Z,15.10
2019-04-11T14:43:03.416Z,14.50
2019-04-11T14:45:57.731Z,14.80
2019-04-11T14:48:40.105Z,15.43
2019-04-11T14:51:26.910Z,15.13
2019-04-11T14:54:05.430Z,14.87
2019-04-11T14:56:35.078Z,14.10
2019-04-11T14:59:32.230Z,14.00
2019-04-11T15:02:08.708Z,14.30
2019-04-11T15:04:55.357Z,13.67
2019-04-11T15:07:24.369Z,14.20
2019-04-11T15:10:01.514Z,13.60
2019-04-11T15:12:32.491Z,12.87
2019-04-11T15:15:23.271Z,13.00
2019-04-11T15:17:57.922Z,13.70
2019-04-11T15:20:54.240Z,13.77
2019-04-11T15:23:17.205Z,13.50
2019-04-11T15:26:08.714Z,13.33
2019-04-11T15:28:53.178Z,13.50
2019-04-11T15:31:39.332Z,14.10
2019-04-11T15:34:22.954Z,14.37
2019-04-11T15:37:10.606Z,13.90
2019-04-11T15:40:03.911Z,14.63
2019-04-11T15:42:44.678Z,13.73
2019-04-11T15:45:31.541Z,13.20
2019-04-11T15:48:23.436Z,13.10
2019-04-11T15:51:23.477Z,14.73
2019-04-11T15:54:17.389Z,14.47
2019-04-11T15:56:49.736Z,14.67
2019-04-11T15:59:44.047Z,14.57
2019-04-11T16:02:24.186Z,13.30
2019-04-11T16:05:31.766Z,13.17
2019-04-11T16:08:18.798Z,13.60
2019-04-11T16:11:07.206Z,13.73
2019-04-11T16:13:49.332Z,13.50
2019-04-11T16:16:19.515Z,14.53
2019-04-11T16:19:22.889Z,14.17
2019-04-11T16:22:17.217Z,15.07
2019-04-11T16:24:46.949Z,15.10
2019-04-11T16:27:40.981Z,16.03
2019-04-11T16:30:10.984Z,14.80
2019-04-11T16:32:43.109Z,15.80
2019-04-11T16:35:23.811Z,16.00
2019-04-11T16:38:00.593Z,15.70
2019-04-11T16:40:43.302Z,14.73
2019-04-11T16:43:12.313Z,14.00
2019-04-11T16:45:59.280Z,15.50
2019-04-11T16:48:28.296Z,15.53
2019-04-11T16:50:57.278Z,16.47
2019-04-11T16:53:26.291Z,15.53
2019-04-11T16:55:55.347Z,15.77
2019-04-11T16:58:24.367Z,15.43
2019-04-11T17:00:53.479Z,17.17
2019-04-11T17:03:25.071Z,15.83
2019-04-11T17:06:12.658Z,16.47
2019-04-11T17:08:46.492Z,15.53
2019-04-11T17:11:18.996Z,16.57
2019-04-11T17:13:48.234Z,17.47
2019-04-11T17:16:18.921Z,16.30
2019-04-11T17:18:47.935Z,16.80
2019-04-11T17:21:16.994Z,17.57
2019-04-11T17:23:47.139Z,17.10
2019-04-11T17:26:16.787Z,16.57
2019-04-11T17:28:45.882Z,16.07
2019-04-11T17:31:14.823Z,17.60
2019-04-11T17:33:44.192Z,16.97
2019-04-11T17:36:13.425Z,18.70
2019-04-11T17:38:42.441Z,19.30
2019-04-11T17:41:14.286Z,22.57
2019-04-11T17:43:46.772Z,18.97
2019-04-11T17:46:14.205Z,19.50
2019-04-11T17:48:43.250Z,19.17
2019-04-11T17:51:12.306Z,19.40
2019-04-11T17:53:41.310Z,17.73
2019-04-11T17:56:10.324Z,17.07
2019-04-11T17:58:40.529Z,18.10
2019-04-11T18:01:12.047Z,18.90
2019-04-11T18:03:42.105Z,17.87
2019-04-11T18:06:11.753Z,17.57
2019-04-11T18:08:40.796Z,16.83
2019-04-11T18:11:11.485Z,18.40
2019-04-11T18:13:40.454Z,17.93
2019-04-11T18:16:09.496Z,16.90
2019-04-11T18:18:38.553Z,18.40
2019-04-11T18:21:08.022Z,17.10
2019-04-11T18:23:37.142Z,16.03
2019-04-11T18:26:07.266Z,18.07
2019-04-11T18:28:36.288Z,15.87
2019-04-11T18:31:05.291Z,17.23
2019-04-11T18:33:34.345Z,15.97
2019-04-11T18:36:03.894Z,15.40
2019-04-11T18:38:32.963Z,16.07
2019-04-11T18:41:02.101Z,16.23
2019-04-11T18:43:31.133Z,17.20
2019-04-11T18:46:00.411Z,15.63
2019-04-11T18:48:29.843Z,15.70
2019-04-11T18:50:58.851Z,15.53
2019-04-11T18:53:27.856Z,16.87
2019-04-11T18:55:56.924Z,17.10
2019-04-11T18:58:26.261Z,16.70
2019-04-11T19:00:55.303Z,16.33
2019-04-11T19:03:35.458Z,14.80
2019-04-11T19:05:55.098Z,15.13
2019-04-11T19:08:24.208Z,15.43
2019-04-11T19:10:53.240Z,15.33
2019-04-11T19:13:22.274Z,15.00
2019-04-11T19:15:51.304Z,14.23
2019-04-11T19:18:21.056Z,15.20
2019-04-11T19:20:50.877Z,15.90
2019-04-11T19:23:19.938Z,15.60
2019-04-11T19:25:48.945Z,16.87
2019-04-11T19:28:18.003Z,14.67
2019-04-11T19:30:47.121Z,16.50
2019-04-11T19:33:16.150Z,16.27
2019-04-11T19:35:45.165Z,15.47
2019-04-11T19:38:28.542Z,15.23
2019-04-11T19:40:57.606Z,15.60
2019-04-11T19:43:26.643Z,15.90
2019-04-11T19:45:58.552Z,14.23
2019-04-11T19:48:27.045Z,14.83
2019-04-11T19:50:58.605Z,14.00
2019-04-11T19:53:26.899Z,13.97
2019-04-11T19:56:08.450Z,14.70
2019-04-11T19:58:37.468Z,14.50
2019-04-11T20:01:06.490Z,14.63
2019-04-11T20:03:35.540Z,14.83
2019-04-11T20:06:04.557Z,17.43
2019-04-11T20:08:33.598Z,15.73
2019-04-11T20:11:03.025Z,25.97
2019-04-11T20:13:32.826Z,18.67
2019-04-11T20:16:01.927Z,20.00
2019-04-11T20:18:30.989Z,16.17
2019-04-11T20:21:00.062Z,14.33
2019-04-11T20:23:29.150Z,16.20
2019-04-11T20:25:58.227Z,15.50
2019-04-11T20:28:27.468Z,16.10
2019-04-11T20:30:56.381Z,15.47
2019-04-11T20:33:27.275Z,18.97
2019-04-11T20:35:56.219Z,14.87
2019-04-11T20:38:25.233Z,15.10
2019-04-11T20:40:54.249Z,14.70
2019-04-11T20:43:25.489Z,15.47
2019-04-11T20:45:54.347Z,14.90
2019-04-11T20:48:23.281Z,15.00
2019-04-11T20:50:52.338Z,18.33
2019-04-11T20:53:21.353Z,16.40
2019-04-11T20:55:50.359Z,15.40
2019-04-11T20:58:27.078Z,14.57
2019-04-11T21:00:55.535Z,16.63
2019-04-11T21:03:20.785Z,15.37
2019-04-11T21:05:49.843Z,15.23
2019-04-11T21:08:18.846Z,16.07
2019-04-11T21:10:47.781Z,14.83
2019-04-11T21:13:16.842Z,14.60
2019-04-11T21:15:45.849Z,15.67
2019-04-11T21:18:14.857Z,15.17
2019-04-11T21:20:43.919Z,14.13
2019-04-11T21:23:23.780Z,15.83
2019-04-11T21:25:43.744Z,14.60
2019-04-11T21:28:12.802Z,14.07
2019-04-11T21:30:41.809Z,14.80
2019-04-11T21:33:10.812Z,16.80
2019-04-11T21:35:39.869Z,14.00
2019-04-11T21:38:08.935Z,14.07
2019-04-11T21:40:37.948Z,13.80
2019-04-11T21:43:06.998Z,13.40
2019-04-11T21:45:36.597Z,13.70
2019-04-11T21:48:06.892Z,14.67
2019-04-11T21:50:40.249Z,14.30
2019-04-11T21:53:07.221Z,15.70
2019-04-11T21:55:36.448Z,14.40
2019-04-11T21:58:05.501Z,15.50
2019-04-11T22:00:44.274Z,15.83
2019-04-11T22:03:13.327Z,16.40
2019-04-11T22:05:42.438Z,17.23
2019-04-11T22:08:11.824Z,18.57
2019-04-11T22:10:41.066Z,18.73
2019-04-11T22:13:10.823Z,16.33
2019-04-11T22:15:42.447Z,16.73
2019-04-11T22:18:15.653Z,16.27
2019-04-11T22:20:42.222Z,14.97
2019-04-11T22:23:11.282Z,15.50
2019-04-11T22:25:40.214Z,17.00
2019-04-11T22:28:09.253Z,15.50
2019-04-11T22:30:38.316Z,14.70
2019-04-11T22:33:28.315Z,16.57
2019-04-11T22:35:59.394Z,17.33
2019-04-11T22:38:30.497Z,18.53
2019-04-11T22:41:01.508Z,18.57
2019-04-11T22:43:30.233Z,17.83
2019-04-11T22:45:59.244Z,17.53
2019-04-11T22:48:28.291Z,18.80
2019-04-11T22:50:57.306Z,19.20
2019-04-11T22:53:26.697Z,19.30
2019-04-11T22:55:55.763Z,19.90
2019-04-11T22:58:24.782Z,20.33
2019-04-11T23:00:54.159Z,21.57
2019-04-11T23:03:27.543Z,20.57
2019-04-11T23:05:56.550Z,22.50
2019-04-11T23:08:25.911Z,22.57
2019-04-11T23:10:54.936Z,21.60
2019-04-11T23:13:23.942Z,23.50
2019-04-11T23:15:52.995Z,23.33
2019-04-11T23:18:22.024Z,23.33
2019-04-11T23:20:51.029Z,22.03
2019-04-11T23:23:20.064Z,22.57
2019-04-11T23:25:49.112Z,24.47
2019-04-11T23:28:18.121Z,24.47
2019-04-11T23:30:50.365Z,22.57
2019-04-11T23:33:18.952Z,22.67
2019-04-11T23:35:50.990Z,22.43
2019-04-11T23:38:23.552Z,22.60
2019-04-11T23:40:51.201Z,21.63
2019-04-11T23:43:20.895Z,21.17
2019-04-11T23:45:51.181Z,21.30
2019-04-11T23:48:23.742Z,21.20
2019-04-11T23:50:54.774Z,21.40
2019-04-11T23:53:22.728Z,23.50
2019-04-11T23:55:51.909Z,21.83
2019-04-11T23:58:20.969Z,22.13
